Time;durP1;ratioP1;P1;durP2;ratioP2;P2;SDS_P1;SDS_P2;PMS_P1;PMS_P2;Temp;Humidity;BMP_temperature;BMP_pressure;BME280_temperature;BME280_humidity;BME280_pressure;Samples;Min_cycle;Max_cycle;Signal;HPM_P1;HPM_P2
2022/05/12 00:01:58;;;;;;;4.80;2.80;;;11.80;99.90;;;;;;4942745;28;90125;-38
2022/05/12 00:04:25;;;;;;;7.70;2.80;;;11.70;99.90;;;;;;4942334;28;89519;-36
2022/05/12 00:06:50;;;;;;;8.32;2.83;;;11.70;99.90;;;;;;4942368;28;89055;-35
2022/05/12 00:09:17;;;;;;;8.15;3.40;;;11.60;99.90;;;;;;4942270;28;90623;-36
2022/05/12 00:11:42;;;;;;;5.05;2.60;;;11.60;99.90;;;;;;4943012;28;89644;-35
2022/05/12 00:14:09;;;;;;;7.68;2.03;;;11.50;99.90;;;;;;4943199;28;89578;-35
2022/05/12 00:16:34;;;;;;;1.95;1.65;;;11.50;99.90;;;;;;4925087;28;88238;-39
2022/05/12 00:19:00;;;;;;;5.00;2.33;;;11.40;99.90;;;;;;4942672;28;90793;-38
2022/05/12 00:21:25;;;;;;;9.20;2.50;;;11.30;99.90;;;;;;4942430;28;89623;-35
2022/05/12 00:23:57;;;;;;;7.40;2.42;;;11.40;99.90;;;;;;4942528;28;89913;-38
2022/05/12 00:26:30;;;;;;;12.68;2.80;;;11.30;99.90;;;;;;4942947;28;87459;-35
2022/05/12 00:28:58;;;;;;;5.05;2.70;;;11.30;99.90;;;;;;4942669;28;90703;-34
2022/05/12 00:31:24;;;;;;;2.55;1.80;;;11.20;99.90;;;;;;4941566;28;90588;-37
2022/05/12 00:33:49;;;;;;;4.80;2.03;;;11.20;99.90;;;;;;4942630;28;89460;-34
2022/05/12 00:36:15;;;;;;;5.97;1.92;;;11.10;99.90;;;;;;4942661;28;88214;-36
2022/05/12 00:38:41;;;;;;;4.43;1.67;;;11.10;99.90;;;;;;4942072;28;90763;-37
2022/05/12 00:41:07;;;;;;;2.25;1.85;;;11.00;99.90;;;;;;4942060;28;89637;-38
2022/05/12 00:43:39;;;;;;;2.40;1.52;;;11.10;99.90;;;;;;4994363;22;88714;-36
2022/05/12 00:46:26;;;;;;;9.13;2.30;;;11.10;99.90;;;;;;4942242;28;87629;-37
2022/05/12 00:48:56;;;;;;;3.05;1.80;;;11.00;99.90;;;;;;4942237;28;91987;-35
2022/05/12 00:51:32;;;;;;;5.65;2.20;;;11.00;99.90;;;;;;4942604;28;91090;-35
2022/05/12 00:54:00;;;;;;;2.22;1.17;;;11.00;99.90;;;;;;4941600;28;90208;-37
2022/05/12 00:56:26;;;;;;;3.50;1.75;;;10.90;99.90;;;;;;4941814;28;90013;-34
2022/05/12 00:58:58;;;;;;;3.33;1.50;;;10.90;99.90;;;;;;4942000;28;90290;-35
2022/05/12 01:01:23;;;;;;;4.07;1.70;;;10.80;99.90;;;;;;4942122;28;89725;-37
2022/05/12 01:03:50;;;;;;;7.03;1.60;;;10.80;99.90;;;;;;4941415;28;89521;-37
2022/05/12 01:06:15;;;;;;;5.05;1.67;;;10.80;99.90;;;;;;4941764;28;89291;-39
2022/05/12 01:08:42;;;;;;;4.05;2.00;;;10.80;99.90;;;;;;4942198;28;89674;-35
2022/05/12 01:11:14;;;;;;;4.85;2.15;;;10.70;99.90;;;;;;4941810;28;89794;-35
2022/05/12 01:13:41;;;;;;;4.25;1.48;;;10.70;99.90;;;;;;4942545;28;90088;-35
2022/05/12 01:16:07;;;;;;;3.42;1.90;;;10.70;99.90;;;;;;4942138;28;89274;-37
2022/05/12 01:18:37;;;;;;;4.00;2.00;;;10.60;99.90;;;;;;4941600;28;90128;-36
2022/05/12 01:21:03;;;;;;;2.30;1.42;;;10.60;99.90;;;;;;4940855;28;91980;-37
2022/05/12 01:23:39;;;;;;;3.08;1.50;;;10.50;99.90;;;;;;4924479;28;90386;-34
2022/05/12 01:26:08;;;;;;;3.15;1.63;;;10.50;99.90;;;;;;4941453;28;89017;-36
2022/05/12 01:28:34;;;;;;;2.42;1.55;;;10.50;99.90;;;;;;4941483;28;89224;-35
2022/05/12 01:31:01;;;;;;;6.43;2.15;;;10.40;99.90;;;;;;4940086;28;89121;-35
2022/05/12 01:33:27;;;;;;;5.13;1.77;;;10.40;99.90;;;;;;4921327;28;88730;-36
2022/05/12 01:35:53;;;;;;;4.65;2.10;;;10.40;99.90;;;;;;4921398;28;88822;-35
2022/05/12 01:38:19;;;;;;;2.85;1.73;;;10.30;99.90;;;;;;4922713;28;89890;-34
2022/05/12 01:40:45;;;;;;;10.63;1.95;;;10.30;99.90;;;;;;4921484;28;89816;-38
2022/05/12 01:43:15;;;;;;;3.22;1.73;;;10.30;99.90;;;;;;4920833;28;89853;-36
2022/05/12 01:45:40;;;;;;;6.47;2.33;;;10.20;99.90;;;;;;4921551;28;90370;-36
2022/05/12 01:48:09;;;;;;;2.22;2.00;;;10.20;99.90;;;;;;4921751;28;91203;-35
2022/05/12 01:50:36;;;;;;;6.32;2.10;;;10.20;99.90;;;;;;4921852;28;89989;-40
2022/05/12 01:53:03;;;;;;;2.35;1.58;;;10.10;99.90;;;;;;4921605;28;89512;-34
2022/05/12 01:55:28;;;;;;;3.30;1.95;;;10.00;99.90;;;;;;4921331;28;87890;-38
2022/05/12 01:57:55;;;;;;;4.00;1.80;;;10.00;99.90;;;;;;4921202;28;91516;-35
2022/05/12 02:00:26;;;;;;;2.40;1.70;;;10.00;99.90;;;;;;4921451;28;89821;-35
2022/05/12 02:02:52;;;;;;;4.82;1.95;;;10.00;99.90;;;;;;4921555;28;89404;-39
2022/05/12 02:05:18;;;;;;;5.45;1.92;;;10.00;99.90;;;;;;4922457;28;89844;-35
2022/05/12 02:07:46;;;;;;;7.65;2.28;;;10.00;99.90;;;;;;4920847;28;90390;-36
2022/05/12 02:10:17;;;;;;;3.17;2.17;;;10.00;99.90;;;;;;4920629;28;90474;-38
2022/05/12 02:12:42;;;;;;;7.55;2.40;;;9.90;99.90;;;;;;4903965;28;91042;-35
2022/05/12 02:15:09;;;;;;;5.07;1.50;;;9.90;99.90;;;;;;4921644;28;90199;-34
2022/05/12 02:17:35;;;;;;;8.02;2.97;;;9.90;99.90;;;;;;4921617;28;90200;-38
2022/05/12 02:20:01;;;;;;;4.32;2.00;;;9.90;99.90;;;;;;4920664;28;89841;-38
2022/05/12 02:22:27;;;;;;;4.22;2.28;;;9.80;99.90;;;;;;4921326;28;89951;-38
2022/05/12 02:24:53;;;;;;;6.82;1.98;;;9.80;99.90;;;;;;4921535;28;89011;-36
2022/05/12 02:27:18;;;;;;;2.15;1.92;;;9.80;99.90;;;;;;4921460;28;90686;-36
2022/05/12 02:29:44;;;;;;;2.05;1.73;;;9.80;99.90;;;;;;4920863;28;90209;-36
2022/05/12 02:32:09;;;;;;;4.03;2.15;;;9.70;99.90;;;;;;4920834;28;89551;-35
2022/05/12 02:34:36;;;;;;;3.00;2.00;;;9.70;99.90;;;;;;4920691;28;89826;-35
2022/05/12 02:37:03;;;;;;;3.17;1.58;;;9.70;99.90;;;;;;4921178;28;90932;-34
2022/05/12 02:39:35;;;;;;;2.33;2.07;;;9.70;99.90;;;;;;4921088;28;90269;-36
2022/05/12 02:42:05;;;;;;;3.17;2.13;;;9.70;99.90;;;;;;4920803;28;89866;-36
2022/05/12 02:44:31;;;;;;;4.03;2.25;;;9.60;99.90;;;;;;4920971;28;88707;-37
2022/05/12 02:46:57;;;;;;;3.72;1.73;;;9.60;99.90;;;;;;4920529;28;90787;-36
2022/05/12 02:49:23;;;;;;;3.22;1.90;;;9.60;99.90;;;;;;4921215;28;88832;-35
2022/05/12 02:51:49;;;;;;;4.53;2.22;;;9.60;99.90;;;;;;4921001;28;89659;-37
2022/05/12 02:54:17;;;;;;;4.10;2.30;;;9.60;99.90;;;;;;4921180;28;89666;-34
2022/05/12 02:56:43;;;;;;;3.13;2.45;;;9.60;99.90;;;;;;4920600;28;90553;-37
2022/05/12 02:59:09;;;;;;;3.72;1.77;;;9.60;99.90;;;;;;4919976;28;90736;-38
2022/05/12 03:01:35;;;;;;;3.30;2.33;;;9.50;99.90;;;;;;4920393;28;90380;-39
2022/05/12 03:04:01;;;;;;;2.75;2.42;;;9.60;99.90;;;;;;4921081;28;89041;-37
2022/05/12 03:06:28;;;;;;;3.35;2.58;;;9.60;99.90;;;;;;4919362;28;90127;-38
2022/05/12 03:08:54;;;;;;;2.20;2.08;;;9.60;99.90;;;;;;4920040;28;89898;-38
2022/05/12 03:11:20;;;;;;;10.07;2.63;;;9.60;99.90;;;;;;4920679;28;88460;-36
2022/05/12 03:13:49;;;;;;;4.80;2.88;;;9.60;99.90;;;;;;4920104;28;89487;-35
2022/05/12 03:16:16;;;;;;;15.88;2.70;;;9.50;99.90;;;;;;4920695;28;90184;-35
2022/05/12 03:18:44;;;;;;;7.85;2.75;;;9.50;99.90;;;;;;4920021;28;89299;-33
2022/05/12 03:21:09;;;;;;;3.13;2.47;;;9.60;99.90;;;;;;4921085;28;90127;-36
2022/05/12 03:23:35;;;;;;;2.53;2.25;;;9.50;99.90;;;;;;4919925;28;88957;-35
2022/05/12 03:26:01;;;;;;;2.60;2.40;;;9.50;99.90;;;;;;4920892;28;89960;-36
2022/05/12 03:28:27;;;;;;;8.07;2.75;;;9.40;99.90;;;;;;4919701;28;91355;-35
2022/05/12 03:30:53;;;;;;;3.63;3.00;;;9.40;99.90;;;;;;4919964;28;88490;-37
2022/05/12 03:33:19;;;;;;;5.55;3.30;;;9.40;99.90;;;;;;4921460;28;88837;-35
2022/05/12 03:35:45;;;;;;;2.90;2.60;;;9.40;99.90;;;;;;4919727;28;90357;-39
2022/05/12 03:38:11;;;;;;;6.68;3.08;;;9.40;99.90;;;;;;4920499;28;89596;-39
2022/05/12 03:40:37;;;;;;;4.13;2.67;;;9.40;99.90;;;;;;4920041;28;89598;-36
2022/05/12 03:43:02;;;;;;;5.30;3.00;;;9.30;99.90;;;;;;4919539;28;88556;-39
2022/05/12 03:45:29;;;;;;;3.20;2.92;;;9.30;99.90;;;;;;4920246;28;90171;-36
2022/05/12 03:47:56;;;;;;;6.13;3.80;;;9.40;99.90;;;;;;4918729;28;90560;-38
2022/05/12 03:50:24;;;;;;;8.45;2.90;;;9.40;99.90;;;;;;4920094;28;90515;-36
2022/05/12 03:52:52;;;;;;;4.18;2.60;;;9.30;99.90;;;;;;4920489;28;87943;-39
2022/05/12 03:55:21;;;;;;;10.52;3.75;;;9.30;99.90;;;;;;4920179;28;90216;-36
2022/05/12 03:57:49;;;;;;;9.10;2.97;;;9.30;99.90;;;;;;4919979;28;89588;-37
2022/05/12 04:00:23;;;;;;;8.57;3.57;;;9.30;99.90;;;;;;4920266;28;90035;-34
2022/05/12 04:02:49;;;;;;;4.75;4.07;;;9.30;99.90;;;;;;4920117;28;88672;-34
2022/05/12 04:05:15;;;;;;;6.80;3.40;;;9.40;99.90;;;;;;4920548;28;90358;-34
2022/05/12 04:07:42;;;;;;;5.65;3.72;;;9.40;99.90;;;;;;4919277;28;90306;-36
2022/05/12 04:10:09;;;;;;;6.50;3.65;;;9.40;99.90;;;;;;4902232;28;90020;-37
2022/05/12 04:12:34;;;;;;;6.38;4.10;;;9.40;99.90;;;;;;4919721;28;89006;-38
2022/05/12 04:15:00;;;;;;;5.70;3.45;;;9.40;99.90;;;;;;4919543;28;90191;-34
2022/05/12 04:17:25;;;;;;;6.45;4.03;;;9.40;99.90;;;;;;4919852;28;92052;-36
2022/05/12 04:19:52;;;;;;;10.98;3.60;;;9.50;99.90;;;;;;4922238;28;90502;-36
2022/05/12 04:22:18;;;;;;;5.57;3.97;;;9.50;99.90;;;;;;4923044;28;87950;-35
2022/05/12 04:24:44;;;;;;;6.82;4.05;;;9.50;99.90;;;;;;4922973;28;90082;-35
2022/05/12 04:27:11;;;;;;;6.95;3.70;;;9.60;99.90;;;;;;4922853;28;90509;-35
2022/05/12 04:29:44;;;;;;;10.30;4.75;;;9.60;99.90;;;;;;4922938;28;89457;-38
2022/05/12 04:32:10;;;;;;;9.43;3.22;;;9.70;99.90;;;;;;4922592;28;88139;-37
2022/05/12 04:37:31;;;;;;;9.77;3.72;;;10.10;99.90;;;;;;4922475;28;91118;-34
2022/05/12 04:40:09;;;;;;;4.85;3.05;;;10.60;99.90;;;;;;4922429;28;90308;-37
2022/05/12 04:42:35;;;;;;;6.30;3.55;;;11.00;99.90;;;;;;4922508;28;89360;-37
2022/05/12 04:45:00;;;;;;;8.52;4.40;;;11.50;99.90;;;;;;4923065;28;90468;-37
2022/05/12 04:47:26;;;;;;;8.00;4.28;;;11.70;99.90;;;;;;4922404;28;90324;-35
2022/05/12 04:49:52;;;;;;;7.53;3.97;;;11.50;99.90;;;;;;4922785;28;89820;-35
2022/05/12 04:52:18;;;;;;;6.70;3.05;;;11.40;99.90;;;;;;4923027;28;89298;-36
2022/05/12 04:54:43;;;;;;;4.80;3.25;;;11.20;99.90;;;;;;4922468;28;89423;-39
2022/05/12 04:57:09;;;;;;;5.55;3.65;;;11.30;99.90;;;;;;4922323;28;89623;-35
2022/05/12 04:59:34;;;;;;;3.92;3.53;;;11.30;99.90;;;;;;4921964;28;89745;-37
2022/05/12 05:02:00;;;;;;;6.32;3.78;;;11.30;99.90;;;;;;4922731;28;89150;-37
2022/05/12 05:04:26;;;;;;;12.20;3.95;;;11.30;99.90;;;;;;4922085;28;90429;-37
2022/05/12 05:06:52;;;;;;;6.40;4.20;;;11.40;99.90;;;;;;4920792;28;89816;-35
2022/05/12 05:09:18;;;;;;;6.90;3.83;;;11.50;99.90;;;;;;4922678;28;89765;-35
2022/05/12 05:11:43;;;;;;;9.68;3.25;;;11.50;99.90;;;;;;4922024;28;87927;-35
2022/05/12 05:14:09;;;;;;;7.05;4.25;;;11.60;99.90;;;;;;4922249;28;93800;-37
2022/05/12 05:16:35;;;;;;;9.32;4.18;;;11.70;99.90;;;;;;4922161;28;89621;-38
2022/05/12 05:19:01;;;;;;;10.77;4.70;;;11.80;99.90;;;;;;4905218;28;91280;-38
2022/05/12 05:21:26;;;;;;;6.18;4.40;;;12.00;99.90;;;;;;4922238;28;89514;-33
2022/05/12 05:23:52;;;;;;;7.70;4.20;;;12.00;99.90;;;;;;4921743;28;88848;-40
2022/05/12 05:26:18;;;;;;;10.85;4.47;;;12.00;99.90;;;;;;4921871;28;90435;-34
2022/05/12 05:28:44;;;;;;;9.00;4.38;;;12.10;99.90;;;;;;4921901;28;90405;-34
2022/05/12 05:31:09;;;;;;;8.32;5.30;;;12.20;99.90;;;;;;4921743;28;87667;-36
2022/05/12 05:33:35;;;;;;;8.65;5.05;;;12.30;99.90;;;;;;4921291;28;91228;-37
2022/05/12 05:36:01;;;;;;;7.22;5.00;;;12.40;99.90;;;;;;4921807;28;93201;-37
2022/05/12 05:38:26;;;;;;;8.27;4.55;;;12.40;99.90;;;;;;4922194;28;89541;-35
2022/05/12 05:40:53;;;;;;;10.25;5.00;;;12.60;99.90;;;;;;4921569;28;88084;-35
2022/05/12 05:43:19;;;;;;;12.43;5.68;;;12.70;99.90;;;;;;4921802;28;89313;-36
2022/05/12 05:45:45;;;;;;;9.98;6.50;;;12.70;99.90;;;;;;4921115;28;89577;-37
2022/05/12 05:48:10;;;;;;;7.75;6.68;;;12.70;99.90;;;;;;4921308;28;89675;-40
2022/05/12 05:53:46;;;;;;;11.05;7.25;;;13.00;99.90;;;;;;4918272;28;90424;-38
2022/05/12 05:56:15;;;;;;;10.90;7.38;;;13.10;99.90;;;;;;4918170;28;89601;-38
2022/05/12 05:58:42;;;;;;;10.70;6.53;;;13.20;99.90;;;;;;4918965;28;89934;-36
2022/05/12 06:01:08;;;;;;;12.70;7.43;;;13.10;99.90;;;;;;4921432;28;88647;-34
2022/05/12 06:03:34;;;;;;;9.75;7.93;;;13.10;99.90;;;;;;4921919;28;90576;-39
2022/05/12 06:06:01;;;;;;;10.30;8.52;;;13.40;99.90;;;;;;4921714;28;90919;-35
2022/05/12 06:08:26;;;;;;;18.13;8.73;;;13.40;99.90;;;;;;4921697;28;89616;-39
2022/05/12 06:10:52;;;;;;;10.18;7.75;;;13.70;99.90;;;;;;4922025;28;89327;-35
2022/05/12 06:13:18;;;;;;;13.90;8.13;;;13.70;99.90;;;;;;4921033;28;89936;-37
2022/05/12 06:15:43;;;;;;;13.10;7.22;;;13.70;99.90;;;;;;4920696;28;91040;-36
2022/05/12 06:18:13;;;;;;;13.07;7.13;;;13.80;99.90;;;;;;4922067;28;92242;-36
2022/05/12 06:20:40;;;;;;;13.50;8.15;;;13.60;99.90;;;;;;4921400;28;88674;-33
2022/05/12 06:23:05;;;;;;;8.95;7.88;;;13.80;99.90;;;;;;4920891;28;90679;-37
2022/05/12 06:25:31;;;;;;;11.07;7.90;;;13.90;99.90;;;;;;4921694;28;94146;-35
2022/05/12 06:27:56;;;;;;;12.25;7.45;;;14.10;99.90;;;;;;4920646;28;89726;-36
2022/05/12 06:30:22;;;;;;;9.98;7.43;;;14.20;99.90;;;;;;4921730;28;89461;-37
2022/05/12 06:32:48;;;;;;;11.38;7.32;;;14.40;99.90;;;;;;4920768;28;90184;-35
2022/05/12 06:35:20;;;;;;;11.32;6.90;;;14.70;99.90;;;;;;4920708;28;90400;-35
2022/05/12 06:37:46;;;;;;;9.55;7.20;;;14.80;99.90;;;;;;4925296;28;89188;-34
2022/05/12 06:40:12;;;;;;;9.10;7.57;;;14.90;99.90;;;;;;4940529;28;90154;-37
2022/05/12 06:42:41;;;;;;;13.40;7.55;;;15.00;99.90;;;;;;4939734;28;92412;-35
2022/05/12 06:45:09;;;;;;;11.00;6.78;;;15.00;99.90;;;;;;4940001;28;89742;-37
2022/05/12 06:47:34;;;;;;;7.05;6.03;;;15.30;99.90;;;;;;4939011;28;89808;-37
2022/05/12 06:50:02;;;;;;;11.25;6.85;;;15.70;99.90;;;;;;4940685;28;89974;-34
2022/05/12 06:52:28;;;;;;;9.07;7.63;;;15.60;99.90;;;;;;4940711;28;89664;-37
2022/05/12 06:54:54;;;;;;;12.80;7.38;;;15.30;99.90;;;;;;4940060;28;89775;-35
2022/05/12 06:57:22;;;;;;;9.38;6.32;;;15.60;99.90;;;;;;4940196;28;89522;-36
2022/05/12 06:59:49;;;;;;;13.20;6.93;;;15.50;99.90;;;;;;4940735;28;89399;-34
2022/05/12 07:02:14;;;;;;;8.77;5.88;;;15.60;99.90;;;;;;4939599;28;90304;-35
2022/05/12 07:04:40;;;;;;;13.68;5.47;;;15.70;99.90;;;;;;4939943;28;90623;-36
2022/05/12 07:07:06;;;;;;;8.48;5.40;;;16.00;99.90;;;;;;4939786;28;90498;-34
2022/05/12 07:09:32;;;;;;;8.25;5.18;;;16.20;99.90;;;;;;4939814;28;90066;-38
2022/05/12 07:11:58;;;;;;;12.30;6.85;;;16.70;99.90;;;;;;4923349;28;90736;-35
2022/05/12 07:14:23;;;;;;;8.63;4.90;;;17.00;99.90;;;;;;4939941;28;90065;-37
2022/05/12 07:16:50;;;;;;;10.38;5.43;;;17.40;99.90;;;;;;4940396;28;89467;-34
2022/05/12 07:19:16;;;;;;;5.20;3.65;;;17.10;99.90;;;;;;4939842;28;89095;-38
2022/05/12 07:27:12;;;;;;;6.90;4.07;;;17.20;99.90;;;;;;4939221;28;91155;-38
2022/05/12 07:29:38;;;;;;;13.60;4.25;;;17.40;99.90;;;;;;4939612;28;89067;-34
2022/05/12 07:32:04;;;;;;;5.30;4.55;;;17.70;99.90;;;;;;4939773;28;89900;-38
2022/05/12 07:34:30;;;;;;;8.50;3.72;;;17.50;99.90;;;;;;4938896;28;89661;-36
2022/05/12 07:36:56;;;;;;;4.47;3.33;;;17.90;99.90;;;;;;4937790;28;89996;-39
2022/05/12 07:39:27;;;;;;;6.15;3.50;;;17.90;99.90;;;;;;4937640;28;88394;-37
2022/05/12 07:41:53;;;;;;;5.93;2.72;;;17.90;99.90;;;;;;4937789;28;90445;-37
2022/05/12 07:44:19;;;;;;;3.70;2.47;;;17.80;99.90;;;;;;4936898;28;90075;-35
2022/05/12 07:46:46;;;;;;;4.80;2.78;;;18.10;99.90;;;;;;4937792;28;88370;-38
2022/05/12 07:49:13;;;;;;;6.15;3.08;;;18.40;99.90;;;;;;4937827;28;89399;-37
2022/05/12 07:51:39;;;;;;;6.38;2.92;;;18.60;99.90;;;;;;4937200;28;89563;-38
2022/05/12 07:54:05;;;;;;;3.95;2.65;;;18.70;99.90;;;;;;4939391;28;90189;-37
2022/05/12 07:56:30;;;;;;;3.83;2.78;;;18.80;99.90;;;;;;4940677;28;90507;-35
2022/05/12 07:58:59;;;;;;;3.17;2.33;;;18.50;99.90;;;;;;4940855;28;89423;-38
2022/05/12 08:01:26;;;;;;;3.38;2.38;;;18.80;99.90;;;;;;4940961;28;90795;-36
2022/05/12 08:03:53;;;;;;;3.07;2.43;;;18.80;99.90;;;;;;4940453;28;89485;-38
2022/05/12 08:06:20;;;;;;;3.78;2.75;;;18.80;99.90;;;;;;4940957;28;89474;-36
2022/05/12 08:08:49;;;;;;;5.07;2.92;;;18.60;99.90;;;;;;4940699;28;88689;-35
2022/05/12 08:11:15;;;;;;;4.47;3.30;;;18.60;99.90;;;;;;4940447;28;90164;-36
2022/05/12 08:13:46;;;;;;;4.20;2.63;;;18.60;99.90;;;;;;4941291;28;89704;-36
2022/05/12 08:16:12;;;;;;;6.57;2.47;;;18.80;99.90;;;;;;4940693;28;89131;-39
2022/05/12 08:18:38;;;;;;;3.45;1.80;;;19.00;99.90;;;;;;4940104;28;89566;-38
2022/05/12 08:21:05;;;;;;;4.40;2.22;;;18.90;99.90;;;;;;4940186;28;90320;-39
2022/05/12 08:23:31;;;;;;;2.70;1.90;;;18.60;99.90;;;;;;4940570;28;89517;-34
2022/05/12 08:25:57;;;;;;;4.47;2.60;;;18.60;99.90;;;;;;4939894;28;91319;-36
2022/05/12 08:28:24;;;;;;;2.53;2.22;;;18.40;99.90;;;;;;4940607;28;89096;-36
2022/05/12 08:30:51;;;;;;;8.35;3.08;;;18.20;99.90;;;;;;4940217;28;91252;-35
2022/05/12 08:33:17;;;;;;;3.47;2.33;;;18.40;99.90;;;;;;4940315;28;88900;-35
2022/05/12 08:35:43;;;;;;;3.72;2.95;;;18.70;99.90;;;;;;4940255;28;89451;-35
2022/05/12 08:38:10;;;;;;;5.10;2.90;;;18.40;99.90;;;;;;4940398;28;88549;-34
2022/05/12 08:41:28;;;;;;;5.95;2.42;;;18.40;99.90;;;;;;4939768;28;90145;-37
2022/05/12 08:44:00;;;;;;;4.97;2.65;;;17.90;99.90;;;;;;4912341;28;90435;-34
2022/05/12 08:46:32;;;;;;;4.03;2.63;;;18.00;99.90;;;;;;4940629;28;90499;-35
2022/05/12 08:49:19;;;;;;;5.30;2.13;;;17.80;99.90;;;;;;4940182;28;89816;-38
2022/05/12 08:51:48;;;;;;;5.05;2.60;;;18.30;99.90;;;;;;4940192;28;90443;-37
2022/05/12 08:54:18;;;;;;;6.50;2.05;;;18.20;99.90;;;;;;4939715;28;89124;-36
2022/05/12 08:56:44;;;;;;;4.55;2.80;;;17.80;99.90;;;;;;4939777;28;89983;-38
2022/05/12 08:59:10;;;;;;;4.32;2.63;;;18.20;99.90;;;;;;4940693;28;90505;-37
2022/05/12 09:01:52;;;;;;;3.25;2.67;;;18.30;99.90;;;;;;4939554;28;90281;-38
2022/05/12 09:04:44;;;;;;;2.50;2.08;;;18.70;99.90;;;;;;4939144;28;89681;-35
2022/05/12 09:07:16;;;;;;;3.00;2.53;;;18.90;99.90;;;;;;4939703;28;89423;-39
2022/05/12 09:10:00;;;;;;;4.88;2.40;;;18.90;99.90;;;;;;4939122;28;90305;-35
2022/05/12 09:12:50;;;;;;;2.80;2.58;;;18.80;99.90;;;;;;4940328;28;90083;-37
2022/05/12 09:15:31;;;;;;;4.85;2.00;;;18.70;99.90;;;;;;4940010;28;90712;-36
2022/05/12 09:18:00;;;;;;;2.63;2.13;;;18.80;96.50;;;;;;4938581;28;89675;-36
2022/05/12 09:20:29;;;;;;;3.33;3.03;;;18.90;89.80;;;;;;4939711;28;89015;-37
2022/05/12 09:22:55;;;;;;;6.38;2.38;;;18.70;91.00;;;;;;4939729;28;90326;-37
2022/05/12 09:25:40;;;;;;;7.78;2.40;;;19.00;89.90;;;;;;4939393;28;90212;-36
2022/05/12 09:28:26;;;;;;;4.00;2.67;;;18.70;91.10;;;;;;4939616;28;90484;-34
2022/05/12 09:30:53;;;;;;;23.92;3.30;;;18.90;95.30;;;;;;4939035;28;90045;-36
2022/05/12 09:33:26;;;;;;;4.43;2.03;;;19.10;97.50;;;;;;4939829;28;88783;-37
2022/05/12 09:36:04;;;;;;;3.50;2.40;;;19.00;92.70;;;;;;4938166;28;90465;-36
2022/05/12 09:38:37;;;;;;;9.02;3.35;;;18.70;98.50;;;;;;4939530;28;90884;-37
2022/05/12 09:41:15;;;;;;;4.18;2.30;;;18.50;99.90;;;;;;4939247;28;89057;-39
2022/05/12 09:43:41;;;;;;;3.60;2.65;;;18.30;99.90;;;;;;4938728;28;90329;-35
2022/05/12 09:46:29;;;;;;;8.52;3.17;;;18.60;99.90;;;;;;4938426;28;90858;-38
2022/05/12 09:49:14;;;;;;;2.72;2.13;;;18.70;92.50;;;;;;4940033;28;89837;-37
2022/05/12 09:51:40;;;;;;;6.15;2.10;;;19.00;90.50;;;;;;4939156;28;89522;-37
2022/05/12 09:54:14;;;;;;;4.10;2.10;;;18.80;73.50;;;;;;4938316;28;90333;-35
2022/05/12 09:56:40;;;;;;;5.20;2.00;;;19.00;76.20;;;;;;4938607;28;89643;-37
2022/05/12 09:59:15;;;;;;;6.10;2.15;;;18.80;82.20;;;;;;4938651;28;89478;-38
2022/05/12 10:01:59;;;;;;;4.03;2.85;;;19.10;75.90;;;;;;4938382;28;88675;-37
2022/05/12 10:10:22;;;;;;;2.90;2.28;;;19.30;67.30;;;;;;4938927;28;90065;-37
2022/05/12 10:13:34;;;;;;;7.47;2.75;;;19.60;75.90;;;;;;4938668;28;88897;-34
2022/05/12 10:16:00;;;;;;;2.28;1.80;;;19.90;82.90;;;;;;4893562;28;92205;-36
2022/05/12 10:18:37;;;;;;;2.00;1.58;;;19.30;66.40;;;;;;4896178;28;89992;-35
2022/05/12 10:21:12;;;;;;;8.93;3.22;;;19.30;66.90;;;;;;4919731;28;89625;-34
2022/05/12 10:23:56;;;;;;;3.63;2.15;;;18.80;73.30;;;;;;4938143;28;88437;-35
2022/05/12 10:26:40;;;;;;;3.50;2.20;;;19.10;83.80;;;;;;4938284;28;90250;-39
2022/05/12 10:29:21;;;;;;;3.08;1.60;;;19.40;77.30;;;;;;4920334;28;90605;-35
2022/05/12 10:32:28;;;;;;;8.48;2.15;;;19.60;68.00;;;;;;4937618;28;91397;-34
2022/05/12 10:35:19;;;;;;;4.20;2.10;;;19.80;67.10;;;;;;4937070;28;89448;-32
2022/05/12 10:37:59;;;;;;;5.43;2.55;;;19.50;70.50;;;;;;4937329;28;91209;-35
2022/05/12 10:40:34;;;;;;;3.10;2.22;;;19.80;92.10;;;;;;4937294;28;89851;-37
2022/05/12 10:43:17;;;;;;;4.30;2.20;;;19.80;62.70;;;;;;4938457;28;89396;-35
2022/05/12 10:46:00;;;;;;;2.60;1.70;;;19.80;68.70;;;;;;4938355;28;90168;-33
2022/05/12 10:48:41;;;;;;;4.88;2.33;;;19.80;76.30;;;;;;4938561;28;91202;-32
2022/05/12 10:51:36;;;;;;;4.65;2.00;;;19.70;66.50;;;;;;4938527;28;88802;-34
2022/05/12 10:54:21;;;;;;;5.72;2.00;;;19.70;73.30;;;;;;4938739;28;89644;-37
2022/05/12 10:56:47;;;;;;;4.78;2.15;;;19.30;70.00;;;;;;4937381;28;90672;-35
2022/05/12 10:59:21;;;;;;;4.45;2.15;;;18.70;72.10;;;;;;4938263;28;88763;-39
2022/05/12 11:01:51;;;;;;;2.28;1.83;;;19.00;76.60;;;;;;4937887;28;89758;-35
2022/05/12 11:04:36;;;;;;;3.00;2.47;;;19.00;89.70;;;;;;4938275;28;90920;-36
2022/05/12 11:07:10;;;;;;;3.58;1.83;;;19.20;76.10;;;;;;4937822;28;89360;-35
2022/05/12 11:09:46;;;;;;;5.80;2.45;;;19.80;71.90;;;;;;4937790;28;90437;-38
2022/05/12 11:12:33;;;;;;;15.30;2.78;;;19.80;67.20;;;;;;4937425;28;89549;-35
2022/05/12 11:15:13;;;;;;;6.22;2.15;;;18.80;63.00;;;;;;4937588;28;90417;-38
2022/05/12 11:17:59;;;;;;;6.13;2.33;;;19.20;63.10;;;;;;4937688;28;89841;-35
2022/05/12 11:20:27;;;;;;;3.53;2.00;;;19.60;62.70;;;;;;4920330;28;90730;-40
2022/05/12 11:23:14;;;;;;;5.13;2.08;;;19.80;62.60;;;;;;4937171;28;91116;-34
2022/05/12 11:25:59;;;;;;;3.00;1.60;;;19.60;62.60;;;;;;4938066;28;90512;-36
2022/05/12 11:32:08;;;;;;;2.65;1.30;;;20.10;60.90;;;;;;4941237;28;90267;-36
2022/05/12 11:34:37;;;;;;;3.22;2.45;;;19.80;57.30;;;;;;4941340;28;89787;-35
2022/05/12 11:37:31;;;;;;;5.07;1.92;;;20.00;62.10;;;;;;4940986;28;89550;-35
2022/05/12 11:39:59;;;;;;;5.13;1.33;;;20.30;57.80;;;;;;4940451;28;87997;-38
2022/05/12 11:42:28;;;;;;;6.25;2.42;;;20.10;57.90;;;;;;4940639;28;90300;-34
2022/05/12 11:44:56;;;;;;;4.57;1.42;;;20.00;61.20;;;;;;4940804;28;89478;-40
2022/05/12 11:47:48;;;;;;;3.28;1.83;;;19.90;57.80;;;;;;4941033;28;89612;-40
2022/05/12 11:50:49;;;;;;;5.28;1.92;;;20.10;59.60;;;;;;4940402;28;89419;-37
2022/05/12 11:53:25;;;;;;;1.88;0.95;;;20.40;57.80;;;;;;4940697;28;90314;-38
2022/05/12 11:56:01;;;;;;;2.67;1.92;;;20.20;56.70;;;;;;4940313;28;90092;-38
2022/05/12 11:58:41;;;;;;;3.53;1.60;;;20.20;56.00;;;;;;4940321;28;89056;-38
2022/05/12 12:01:10;;;;;;;5.95;2.08;;;20.00;57.60;;;;;;4940875;28;89122;-36
2022/05/12 12:03:48;;;;;;;2.03;1.42;;;19.90;57.90;;;;;;4940654;28;89273;-39
2022/05/12 12:06:38;;;;;;;1.40;1.27;;;20.00;57.30;;;;;;4923233;28;91165;-39
2022/05/12 12:09:25;;;;;;;15.10;14.07;;;19.50;56.00;;;;;;4940315;28;89496;-38
2022/05/12 12:11:51;;;;;;;1.35;1.25;;;19.50;57.00;;;;;;4940178;28;89013;-39
2022/05/12 12:14:42;;;;;;;3.47;1.85;;;19.10;58.00;;;;;;4940772;28;90849;-35
2022/05/12 12:17:10;;;;;;;3.05;1.38;;;18.80;58.60;;;;;;4940330;28;90728;-36
2022/05/12 12:19:47;;;;;;;5.07;1.80;;;18.90;59.90;;;;;;4940752;28;89926;-34
2022/05/12 12:22:40;;;;;;;6.30;2.42;;;18.60;58.20;;;;;;4940849;28;90100;-33
2022/05/12 12:25:09;;;;;;;2.03;1.80;;;19.10;59.10;;;;;;4939956;28;92402;-38
2022/05/12 12:27:53;;;;;;;10.35;1.90;;;19.40;62.10;;;;;;4939679;28;90067;-36
2022/05/12 12:30:30;;;;;;;2.60;1.20;;;19.50;56.80;;;;;;4940695;28;89751;-34
2022/05/12 12:33:13;;;;;;;3.50;1.37;;;18.70;55.50;;;;;;4940140;28;88904;-38
2022/05/12 12:35:53;;;;;;;4.20;1.30;;;19.10;54.60;;;;;;4940651;28;90380;-36
2022/05/12 12:38:38;;;;;;;1.08;0.98;;;19.30;54.30;;;;;;4940872;28;89794;-37
2022/05/12 12:41:03;;;;;;;3.15;1.20;;;19.60;54.00;;;;;;4940075;28;89859;-35
2022/05/12 12:43:37;;;;;;;3.42;1.23;;;20.00;55.00;;;;;;5001926;22;90061;-37
2022/05/12 12:46:26;;;;;;;7.22;1.92;;;19.80;52.90;;;;;;4959774;28;90508;-36
2022/05/12 12:49:28;;;;;;;2.95;1.85;;;19.20;54.30;;;;;;4960597;28;89763;-33
2022/05/12 12:52:10;;;;;;;1.38;0.93;;;19.60;55.40;;;;;;4921944;28;89642;-37
2022/05/12 12:57:41;;;;;;;1.70;0.90;;;20.00;52.70;;;;;;4959446;28;90236;-36
2022/05/12 13:00:15;;;;;;;2.95;1.38;;;20.10;51.10;;;;;;4960518;28;89989;-35
2022/05/12 13:02:45;;;;;;;2.53;0.82;;;20.10;48.50;;;;;;4959117;28;90253;-34
2022/05/12 13:05:18;;;;;;;3.90;1.40;;;20.10;50.10;;;;;;4959529;28;90200;-34
2022/05/12 13:07:56;;;;;;;0.98;0.90;;;19.90;48.20;;;;;;4959720;28;90558;-35
2022/05/12 13:10:22;;;;;;;;;;;20.00;48.10;;;;;;4959267;28;90872;-37
2022/05/12 13:13:00;;;;;;;1.42;0.75;;;19.90;47.70;;;;;;4960450;28;90102;-37
2022/05/12 13:15:26;;;;;;;3.53;1.77;;;19.90;48.90;;;;;;4959382;28;89641;-36
2022/05/12 13:17:58;;;;;;;4.35;1.67;;;20.00;49.60;;;;;;4959134;28;90170;-36
2022/05/12 13:20:28;;;;;;;1.63;0.95;;;20.20;50.80;;;;;;4958943;28;89969;-37
2022/05/12 13:23:00;;;;;;;6.38;1.80;;;20.20;50.40;;;;;;4959266;28;91367;-34
2022/05/12 13:25:31;;;;;;;4.30;1.45;;;20.00;51.50;;;;;;4959007;28;88551;-36
2022/05/12 13:27:57;;;;;;;1.83;1.23;;;20.00;51.60;;;;;;4958371;28;89279;-36
2022/05/12 13:30:40;;;;;;;5.53;1.90;;;20.40;52.40;;;;;;4958737;28;90074;-37